createdAt,value
2023-03-03T04:48:31.525Z,5.15
2023-03-03T04:51:35.801Z,5.15
2023-03-03T04:54:38.659Z,4.74
2023-03-03T04:57:42.508Z,4.75
2023-03-03T05:00:53.214Z,4.80
2023-03-03T05:03:55.936Z,4.85
2023-03-03T05:06:58.640Z,4.87
2023-03-03T05:10:01.948Z,4.91
2023-03-03T05:13:04.965Z,4.92
2023-03-03T05:16:08.078Z,5.05
2023-03-03T05:19:10.863Z,5.07
2023-03-03T05:22:13.783Z,5.01
2023-03-03T05:25:16.673Z,5.26
2023-03-03T05:28:19.270Z,5.15
2023-03-03T05:31:22.196Z,5.12
2023-03-03T05:34:24.944Z,5.12
2023-03-03T05:37:27.458Z,5.15
2023-03-03T05:40:30.172Z,4.97
2023-03-03T05:43:32.763Z,4.97
2023-03-03T05:46:35.504Z,5.01
2023-03-03T05:49:38.024Z,5.07
2023-03-03T05:52:40.893Z,5.12
2023-03-03T05:55:43.274Z,5.08
2023-03-03T05:58:45.982Z,5.23
2023-03-03T06:01:48.341Z,5.14
2023-03-03T06:04:51.185Z,5.19
2023-03-03T06:07:53.631Z,5.28
2023-03-03T06:10:56.702Z,5.27
2023-03-03T06:14:00.001Z,5.30
2023-03-03T06:17:02.945Z,5.37
2023-03-03T06:20:06.828Z,5.43
2023-03-03T06:23:09.574Z,5.72
2023-03-03T06:26:11.914Z,5.71
2023-03-03T06:29:15.884Z,5.66
2023-03-03T06:32:18.497Z,5.75
2023-03-03T06:35:21.615Z,5.83
2023-03-03T06:38:24.422Z,6.00
2023-03-03T06:41:27.211Z,5.88
2023-03-03T06:44:29.701Z,5.91
2023-03-03T06:47:33.918Z,6.02
2023-03-03T06:50:36.768Z,6.26
2023-03-03T06:53:39.675Z,6.45
2023-03-03T06:56:43.706Z,6.65
2023-03-03T06:59:51.925Z,6.69
2023-03-03T07:03:00.264Z,6.81
2023-03-03T07:06:25.349Z,6.83
2023-03-03T07:09:29.735Z,6.92
2023-03-03T07:12:35.426Z,6.73
2023-03-03T07:15:38.298Z,6.71
2023-03-03T07:18:54.718Z,6.86
2023-03-03T07:21:57.834Z,7.06
2023-03-03T07:25:04.479Z,7.12
2023-03-03T07:28:24.622Z,7.08
2023-03-03T07:31:36.337Z,7.23
2023-03-03T07:34:49.115Z,7.28
2023-03-03T07:37:51.887Z,7.32
2023-03-03T07:40:57.819Z,7.35
2023-03-03T07:44:06.882Z,7.37
2023-03-03T07:47:29.596Z,7.50
2023-03-03T07:50:34.636Z,7.52
2023-03-03T07:53:38.173Z,7.69
2023-03-03T07:56:40.831Z,7.90
2023-03-03T07:59:55.560Z,8.02
2023-03-03T08:03:08.449Z,8.12
2023-03-03T08:06:37.837Z,8.35
2023-03-03T08:10:00.078Z,8.38
2023-03-03T08:13:15.769Z,8.53
2023-03-03T08:16:24.524Z,8.67
2023-03-03T08:19:29.965Z,8.74
2023-03-03T08:22:38.151Z,8.84
2023-03-03T08:25:42.423Z,8.76
2023-03-03T08:28:45.460Z,8.82
2023-03-03T08:31:48.357Z,8.88
2023-03-03T08:34:50.670Z,9.12
2023-03-03T08:37:54.153Z,9.20
2023-03-03T08:40:56.549Z,9.26
2023-03-03T08:43:59.193Z,9.35
2023-03-03T08:47:01.567Z,9.60
2023-03-03T08:50:05.350Z,9.72
2023-03-03T08:53:08.791Z,10.09
2023-03-03T08:56:11.519Z,10.35
2023-03-03T08:59:13.887Z,10.46
2023-03-03T09:02:17.151Z,10.50
2023-03-03T09:05:21.229Z,10.40
2023-03-03T09:08:23.974Z,10.48
2023-03-03T09:11:28.618Z,10.62
2023-03-03T09:14:31.377Z,10.84
2023-03-03T09:17:35.506Z,10.74
2023-03-03T09:20:48.146Z,10.85
2023-03-03T09:23:56.965Z,10.84
2023-03-03T09:26:59.944Z,10.89
2023-03-03T09:30:26.529Z,10.95
2023-03-03T09:33:51.500Z,11.02
2023-03-03T09:36:55.474Z,11.32
2023-03-03T09:39:58.818Z,11.70
2023-03-03T09:43:06.924Z,11.70
2023-03-03T09:46:23.884Z,11.78
2023-03-03T09:49:38.659Z,11.86
2023-03-03T09:53:19.515Z,11.64
2023-03-03T09:56:30.188Z,11.92
2023-03-03T09:59:51.628Z,11.94
2023-03-03T10:03:28.111Z,11.72
2023-03-03T10:07:11.418Z,11.70
2023-03-03T10:10:45.174Z,11.88
2023-03-03T10:14:05.259Z,12.19
2023-03-03T10:17:23.143Z,12.60
2023-03-03T10:20:34.756Z,12.26
2023-03-03T10:24:06.748Z,12.27
2023-03-03T10:27:44.561Z,12.49
2023-03-03T10:31:10.740Z,12.48
2023-03-03T10:34:55.042Z,12.54
2023-03-03T10:38:26.898Z,12.40
2023-03-03T10:41:47.140Z,12.62
2023-03-03T10:44:52.173Z,12.60
2023-03-03T10:48:29.554Z,12.59
2023-03-03T10:51:53.766Z,12.19
2023-03-03T10:55:17.558Z,11.78
2023-03-03T10:58:51.615Z,11.93
2023-03-03T11:02:28.741Z,11.92
2023-03-03T11:05:48.616Z,12.12
2023-03-03T11:08:59.947Z,12.36
2023-03-03T11:12:49.440Z,12.70
2023-03-03T11:16:14.748Z,12.80
2023-03-03T11:19:26.426Z,12.95
2023-03-03T11:23:07.788Z,13.11
2023-03-03T11:26:34.567Z,13.06
2023-03-03T11:29:39.816Z,13.06
2023-03-03T11:33:03.434Z,13.15
2023-03-03T11:36:11.228Z,12.94
2023-03-03T11:39:18.076Z,13.10
2023-03-03T11:42:27.026Z,13.28
2023-03-03T11:45:56.387Z,13.13
2023-03-03T11:49:15.586Z,12.89
2023-03-03T11:52:21.901Z,12.98
2023-03-03T11:55:30.495Z,13.04
2023-03-03T11:58:45.520Z,13.20
2023-03-03T12:02:04.188Z,13.64
2023-03-03T12:05:28.583Z,13.92
2023-03-03T12:08:47.330Z,13.78
2023-03-03T12:11:59.334Z,13.97
2023-03-03T12:15:09.328Z,14.20
2023-03-03T12:18:28.174Z,14.27
2023-03-03T12:21:45.692Z,14.53
2023-03-03T12:25:17.993Z,14.46
2023-03-03T12:28:40.953Z,14.92
2023-03-03T12:32:04.267Z,15.05
2023-03-03T12:35:17.858Z,15.12
2023-03-03T12:39:05.090Z,15.12
2023-03-03T12:42:25.520Z,15.00
2023-03-03T12:45:42.120Z,14.84
2023-03-03T12:48:46.379Z,14.82
2023-03-03T12:52:04.281Z,14.75
2023-03-03T12:55:25.162Z,14.64
2023-03-03T12:58:56.383Z,14.21
2023-03-03T13:02:33.221Z,13.75
2023-03-03T13:05:45.812Z,13.51
2023-03-03T13:09:25.662Z,13.44
2023-03-03T13:12:35.462Z,13.42
2023-03-03T13:16:03.088Z,13.16
2023-03-03T13:19:16.108Z,13.11
2023-03-03T13:22:33.811Z,13.20
2023-03-03T13:25:49.056Z,13.29
2023-03-03T13:29:08.536Z,13.52
2023-03-03T13:32:25.400Z,13.52
2023-03-03T13:35:49.999Z,13.63
2023-03-03T13:38:57.659Z,13.50
2023-03-03T13:42:04.501Z,13.30
2023-03-03T13:45:36.000Z,13.33
2023-03-03T13:48:44.721Z,13.22
2023-03-03T13:52:06.150Z,13.29
2023-03-03T13:55:21.612Z,13.30
2023-03-03T13:58:41.136Z,13.24
2023-03-03T14:02:10.313Z,13.20
2023-03-03T14:05:51.724Z,13.17
2023-03-03T14:09:00.390Z,13.14
2023-03-03T14:12:40.176Z,13.04
2023-03-03T14:16:10.611Z,13.05
2023-03-03T14:19:31.419Z,12.91
2023-03-03T14:22:39.998Z,13.00
2023-03-03T14:26:04.207Z,12.87
2023-03-03T14:29:22.525Z,12.71
2023-03-03T14:32:43.143Z,12.80
2023-03-03T14:35:59.386Z,13.02
2023-03-03T14:39:02.614Z,12.99
2023-03-03T14:42:33.869Z,12.94
2023-03-03T14:45:42.321Z,12.85
2023-03-03T14:48:55.934Z,12.92
2023-03-03T14:52:03.881Z,12.98
2023-03-03T14:55:36.753Z,12.80
2023-03-03T14:58:41.803Z,12.74
2023-03-03T15:01:44.845Z,12.65
2023-03-03T15:04:48.851Z,12.61
2023-03-03T15:07:56.736Z,12.49
2023-03-03T15:11:36.367Z,12.43
2023-03-03T15:14:44.936Z,12.44
2023-03-03T15:17:50.413Z,12.39
2023-03-03T15:21:08.665Z,12.31
2023-03-03T15:24:31.536Z,12.25
2023-03-03T15:27:42.317Z,12.16
2023-03-03T15:31:09.035Z,12.03
2023-03-03T15:34:17.574Z,11.94
2023-03-03T15:37:42.153Z,11.83
2023-03-03T15:40:49.292Z,11.72
2023-03-03T15:43:54.946Z,11.57
2023-03-03T15:47:15.240Z,11.61
2023-03-03T15:50:38.312Z,11.49
2023-03-03T15:53:58.189Z,11.33
2023-03-03T15:57:06.032Z,11.28
2023-03-03T16:00:40.463Z,11.20
2023-03-03T16:03:48.451Z,10.92
2023-03-03T16:07:17.303Z,10.84
2023-03-03T16:10:22.860Z,10.63
2023-03-03T16:13:41.025Z,10.67
2023-03-03T16:16:59.191Z,10.51
2023-03-03T16:20:07.411Z,10.36
2023-03-03T16:23:21.395Z,10.31
2023-03-03T16:27:05.446Z,10.26
2023-03-03T16:30:23.378Z,10.05
